Pagrindinis puslapis
METAR-TAF:

METAR-TAF

Oro uostai :

Nansi, Prancūzija

platuma: 48-41N, ilguma: 006-13E, Aukštis: 225 m

Dabartinis oras

Ataskaita buvo paskelbta 18 minutes, ne 19:00 UTC
Vėjas 2 kt iš Šiaurės Rytų
Temperatūra 8°C
Drėgmė 71%
Slėgis 1030 hPa
Matomumas 10 km arba daugiau
nėra debesų žemiau 1500 m ir nėra kamuolinių lietaus debesų

METAR: LFSN 021900Z AUTO 05002KT CAVOK 08/03 Q1030

Laikas: 20:18 (19:18 UTC)


TAF: trūkstamas

Orai ataskaitas ir orų prognozės (METAR, TAF).

turimą stotys yra geltonos ir raudonos taškus žemėlapyje.

Perkelti pele per norėdami pamatyti stoties vardą.

Tada spustelėkite, norėdami matyti oro stebėjimo ir prognozės.

Norėdami pakeisti žemėlapį: spustelėkite ant žalios mygtukų su juodo kryžiaus žemyn,; žalią mygtuką su brūkšneliu, jei norite nutolinti; arba žalių rodyklių gretimoms žemėlapius.


METAR-TAF: